Etusivu
METAR-TAF:

METAR-TAF

Lentoasemat :

Gillam, Manitoba, Kanada

Leveyspiiri: 56-21N, Pituuspiiri: 094-42W, korkeus merenpinnasta: 145 m

Tämänhetkinen sää

Tämä raportti tehtiin 37 minuuttia sitten, kello 16.00 UTC
Tuuli 5 kn lännestä
Lämpötila -27°C
Kosteus 75%
Ilmanpaine 1037 hPa
Näkyvyys: 24.1 km
selkeää

METAR: CYGX 251600Z 28005KT 15SM SKC M27/M30 A3063 RMK SLP399

Aika: 10:37 (16:37 UTC)

Sääennuste

Tämä raportti tehtiin 3 tuntia ja 54 minuuttia sitten, kello 12.43 UTC
Ennuste voimassa 25. päivästä klo 13 UTC - 26. päivään klo 01 UTC
Tuuli 8 kn lännestä/luoteesta
Näkyvyys: 10 km
selkeää
Ajoittain
25. päivästä klo 13 UTC - 26. päivään klo 01 UTC
Näkyvyys: 4.8 km
jääkiteitä

TAF: CYGX 251243Z 2513/2601 30008KT P6SM SKC TEMPO 2513/2601 3SM IC RMK NXT FCST BY 251900Z

Säähavainnot ja -ennusteet yli 4000 lentoasemalta (METAR- ja TAF-raportit).

Käytössä olevat sääasemat on merkitty karttaan keltaisilla ja punaisilla pisteillä.

Aseta hiiri pisteen päälle nähdäksesi sääaseman nimen.

Klikkaa sitten nähdäksesi säähavainnot ja -ennusteet.

Kartan vaihtaminen: klikkaa mustalla rastilla varustettuja vihreitä pisteitä, niin voit zoomata sisään; viivalla varustettua vihreää pistettä, niin voit zoomata ulos tai vihreitä nuolia, niin pääset viereisille kartoille.


METAR-TAF: